sensor_id;sensor_type;location;lat;lon;timestamp;temperature;humidity
32749;DHT22;19119;52.474;13.710;2022-10-16T00:01:15;14.30;99.90
32749;DHT22;19119;52.474;13.710;2022-10-16T00:03:42;14.30;99.90
32749;DHT22;19119;52.474;13.710;2022-10-16T00:06:09;14.40;99.90
32749;DHT22;19119;52.474;13.710;2022-10-16T00:08:35;14.40;99.90
32749;DHT22;19119;52.474;13.710;2022-10-16T00:11:10;14.40;99.90
32749;DHT22;19119;52.474;13.710;2022-10-16T00:13:38;14.40;99.90
32749;DHT22;19119;52.474;13.710;2022-10-16T00:16:05;14.40;99.90
32749;DHT22;19119;52.474;13.710;2022-10-16T00:18:31;14.40;99.90
32749;DHT22;19119;52.474;13.710;2022-10-16T00:21:20;14.50;99.90
32749;DHT22;19119;52.474;13.710;2022-10-16T00:23:49;14.50;99.90
32749;DHT22;19119;52.474;13.710;2022-10-16T00:26:16;14.50;99.90
32749;DHT22;19119;52.474;13.710;2022-10-16T00:28:44;14.50;99.90
32749;DHT22;19119;52.474;13.710;2022-10-16T00:31:11;14.50;99.90
32749;DHT22;19119;52.474;13.710;2022-10-16T00:33:38;14.60;99.90
32749;DHT22;19119;52.474;13.710;2022-10-16T00:36:05;14.60;99.90
32749;DHT22;19119;52.474;13.710;2022-10-16T00:38:31;14.60;99.90
32749;DHT22;19119;52.474;13.710;2022-10-16T00:40:57;14.60;99.90
32749;DHT22;19119;52.474;13.710;2022-10-16T00:44:00;14.60;99.90
32749;DHT22;19119;52.474;13.710;2022-10-16T00:46:40;14.60;99.90
32749;DHT22;19119;52.474;13.710;2022-10-16T00:49:11;14.60;99.90
32749;DHT22;19119;52.474;13.710;2022-10-16T00:51:45;14.70;99.90
32749;DHT22;19119;52.474;13.710;2022-10-16T00:54:15;14.70;99.90
32749;DHT22;19119;52.474;13.710;2022-10-16T00:56:42;14.70;99.90
32749;DHT22;19119;52.474;13.710;2022-10-16T00:59:15;14.80;99.90
32749;DHT22;19119;52.474;13.710;2022-10-16T01:01:41;14.80;99.90
32749;DHT22;19119;52.474;13.710;2022-10-16T01:04:06;14.80;99.90
32749;DHT22;19119;52.474;13.710;2022-10-16T01:09:35;14.90;99.90
32749;DHT22;19119;52.474;13.710;2022-10-16T01:15:27;15.00;99.90
32749;DHT22;19119;52.474;13.710;2022-10-16T01:18:05;15.00;99.90
32749;DHT22;19119;52.474;13.710;2022-10-16T01:20:37;15.00;99.90
32749;DHT22;19119;52.474;13.710;2022-10-16T01:25:54;15.10;99.90
32749;DHT22;19119;52.474;13.710;2022-10-16T01:28:28;15.00;99.90
32749;DHT22;19119;52.474;13.710;2022-10-16T01:30:58;15.10;99.90
32749;DHT22;19119;52.474;13.710;2022-10-16T01:33:40;14.90;99.90
32749;DHT22;19119;52.474;13.710;2022-10-16T01:36:14;14.90;99.90
32749;DHT22;19119;52.474;13.710;2022-10-16T01:38:41;14.80;99.90
32749;DHT22;19119;52.474;13.710;2022-10-16T01:41:22;14.80;99.90
32749;DHT22;19119;52.474;13.710;2022-10-16T01:44:03;14.70;99.90
32749;DHT22;19119;52.474;13.710;2022-10-16T01:46:31;14.70;99.90
32749;DHT22;19119;52.474;13.710;2022-10-16T01:48:58;14.70;99.90
32749;DHT22;19119;52.474;13.710;2022-10-16T01:51:25;14.60;99.90
32749;DHT22;19119;52.474;13.710;2022-10-16T01:53:55;14.70;99.90
32749;DHT22;19119;52.474;13.710;2022-10-16T01:56:23;14.70;99.90
32749;DHT22;19119;52.474;13.710;2022-10-16T01:58:54;14.60;99.90
32749;DHT22;19119;52.474;13.710;2022-10-16T02:01:23;14.60;99.90
32749;DHT22;19119;52.474;13.710;2022-10-16T02:03:53;14.70;99.90
32749;DHT22;19119;52.474;13.710;2022-10-16T02:06:19;14.70;99.90
32749;DHT22;19119;52.474;13.710;2022-10-16T02:08:45;14.70;99.90
32749;DHT22;19119;52.474;13.710;2022-10-16T02:11:11;14.70;99.90
32749;DHT22;19119;52.474;13.710;2022-10-16T02:14:11;14.70;99.90
32749;DHT22;19119;52.474;13.710;2022-10-16T02:16:45;14.70;99.90
32749;DHT22;19119;52.474;13.710;2022-10-16T02:19:15;14.70;99.90
32749;DHT22;19119;52.474;13.710;2022-10-16T02:21:55;14.80;99.90
32749;DHT22;19119;52.474;13.710;2022-10-16T02:29:46;14.80;99.90
32749;DHT22;19119;52.474;13.710;2022-10-16T02:32:18;14.80;99.90
32749;DHT22;19119;52.474;13.710;2022-10-16T02:34:46;14.90;99.90
32749;DHT22;19119;52.474;13.710;2022-10-16T02:37:14;14.80;99.90
32749;DHT22;19119;52.474;13.710;2022-10-16T02:39:41;14.90;99.90
32749;DHT22;19119;52.474;13.710;2022-10-16T02:42:11;14.90;99.90
32749;DHT22;19119;52.474;13.710;2022-10-16T02:44:37;14.80;99.90
32749;DHT22;19119;52.474;13.710;2022-10-16T02:47:02;14.80;99.90
32749;DHT22;19119;52.474;13.710;2022-10-16T02:49:28;14.80;99.90
32749;DHT22;19119;52.474;13.710;2022-10-16T02:51:53;14.70;99.90
32749;DHT22;19119;52.474;13.710;2022-10-16T02:54:19;14.70;99.90
32749;DHT22;19119;52.474;13.710;2022-10-16T02:56:45;14.70;99.90
32749;DHT22;19119;52.474;13.710;2022-10-16T02:59:10;14.70;99.90
32749;DHT22;19119;52.474;13.710;2022-10-16T03:01:36;14.70;99.90
32749;DHT22;19119;52.474;13.710;2022-10-16T03:04:01;14.70;99.90
32749;DHT22;19119;52.474;13.710;2022-10-16T03:06:27;14.70;99.90
32749;DHT22;19119;52.474;13.710;2022-10-16T03:08:52;14.70;99.90
32749;DHT22;19119;52.474;13.710;2022-10-16T03:11:18;14.70;99.90
32749;DHT22;19119;52.474;13.710;2022-10-16T03:13:43;14.70;99.90
32749;DHT22;19119;52.474;13.710;2022-10-16T03:16:09;14.80;99.90
32749;DHT22;19119;52.474;13.710;2022-10-16T03:18:35;14.90;99.90
32749;DHT22;19119;52.474;13.710;2022-10-16T03:21:00;14.90;99.90
32749;DHT22;19119;52.474;13.710;2022-10-16T03:23:26;14.90;99.90
32749;DHT22;19119;52.474;13.710;2022-10-16T03:25:52;14.80;99.90
32749;DHT22;19119;52.474;13.710;2022-10-16T03:28:19;14.80;99.90
32749;DHT22;19119;52.474;13.710;2022-10-16T03:30:44;14.70;99.90
32749;DHT22;19119;52.474;13.710;2022-10-16T03:33:10;14.70;99.90
32749;DHT22;19119;52.474;13.710;2022-10-16T03:35:35;14.70;99.90
32749;DHT22;19119;52.474;13.710;2022-10-16T03:38:01;14.70;99.90
32749;DHT22;19119;52.474;13.710;2022-10-16T03:40:26;14.70;99.90
32749;DHT22;19119;52.474;13.710;2022-10-16T03:42:52;14.70;99.90
32749;DHT22;19119;52.474;13.710;2022-10-16T03:45:20;14.60;99.90
32749;DHT22;19119;52.474;13.710;2022-10-16T03:47:46;14.60;99.90
32749;DHT22;19119;52.474;13.710;2022-10-16T03:50:12;14.60;99.90
32749;DHT22;19119;52.474;13.710;2022-10-16T03:52:38;14.70;99.90
32749;DHT22;19119;52.474;13.710;2022-10-16T03:55:04;14.60;99.90
32749;DHT22;19119;52.474;13.710;2022-10-16T03:57:29;14.60;99.90
32749;DHT22;19119;52.474;13.710;2022-10-16T03:59:55;14.60;99.90
32749;DHT22;19119;52.474;13.710;2022-10-16T04:02:20;14.60;99.90
32749;DHT22;19119;52.474;13.710;2022-10-16T04:04:46;14.50;99.90
32749;DHT22;19119;52.474;13.710;2022-10-16T04:07:11;14.50;99.90
32749;DHT22;19119;52.474;13.710;2022-10-16T04:09:37;14.60;99.90
32749;DHT22;19119;52.474;13.710;2022-10-16T04:12:03;14.60;99.90
32749;DHT22;19119;52.474;13.710;2022-10-16T04:14:28;14.60;99.90
32749;DHT22;19119;52.474;13.710;2022-10-16T04:16:54;14.60;99.90
32749;DHT22;19119;52.474;13.710;2022-10-16T04:19:19;14.60;99.90
32749;DHT22;19119;52.474;13.710;2022-10-16T04:21:45;14.70;99.90
32749;DHT22;19119;52.474;13.710;2022-10-16T04:24:10;14.70;99.90
32749;DHT22;19119;52.474;13.710;2022-10-16T04:26:36;14.70;99.90
32749;DHT22;19119;52.474;13.710;2022-10-16T04:29:02;14.70;99.90
32749;DHT22;19119;52.474;13.710;2022-10-16T04:31:28;14.70;99.90
32749;DHT22;19119;52.474;13.710;2022-10-16T04:33:53;14.60;99.90
32749;DHT22;19119;52.474;13.710;2022-10-16T04:36:19;14.60;99.90
32749;DHT22;19119;52.474;13.710;2022-10-16T04:38:44;14.60;99.90
32749;DHT22;19119;52.474;13.710;2022-10-16T04:41:10;14.60;99.90
32749;DHT22;19119;52.474;13.710;2022-10-16T04:43:35;14.60;99.90
32749;DHT22;19119;52.474;13.710;2022-10-16T04:46:01;14.70;99.90
32749;DHT22;19119;52.474;13.710;2022-10-16T04:48:27;14.70;99.90
32749;DHT22;19119;52.474;13.710;2022-10-16T04:50:52;14.80;99.90
32749;DHT22;19119;52.474;13.710;2022-10-16T04:53:18;14.80;99.90
32749;DHT22;19119;52.474;13.710;2022-10-16T04:55:43;14.80;99.90
32749;DHT22;19119;52.474;13.710;2022-10-16T04:58:09;14.80;99.90
32749;DHT22;19119;52.474;13.710;2022-10-16T05:00:35;14.80;99.90
32749;DHT22;19119;52.474;13.710;2022-10-16T05:03:01;14.70;99.90
32749;DHT22;19119;52.474;13.710;2022-10-16T05:05:31;14.60;99.90
32749;DHT22;19119;52.474;13.710;2022-10-16T05:07:56;14.70;99.90
32749;DHT22;19119;52.474;13.710;2022-10-16T05:10:22;14.70;99.90
32749;DHT22;19119;52.474;13.710;2022-10-16T05:12:47;14.60;99.90
32749;DHT22;19119;52.474;13.710;2022-10-16T05:15:13;14.60;99.90
32749;DHT22;19119;52.474;13.710;2022-10-16T05:17:39;14.50;99.90
32749;DHT22;19119;52.474;13.710;2022-10-16T05:20:05;14.50;99.90
32749;DHT22;19119;52.474;13.710;2022-10-16T05:22:30;14.30;99.90
32749;DHT22;19119;52.474;13.710;2022-10-16T05:24:56;14.30;99.90
32749;DHT22;19119;52.474;13.710;2022-10-16T05:27:21;14.30;99.90
32749;DHT22;19119;52.474;13.710;2022-10-16T05:29:48;14.30;99.90
32749;DHT22;19119;52.474;13.710;2022-10-16T05:32:14;14.30;99.90
32749;DHT22;19119;52.474;13.710;2022-10-16T05:34:40;14.30;99.90
32749;DHT22;19119;52.474;13.710;2022-10-16T05:37:05;14.30;99.90
32749;DHT22;19119;52.474;13.710;2022-10-16T05:39:31;14.30;99.90
32749;DHT22;19119;52.474;13.710;2022-10-16T05:41:57;14.20;99.90
32749;DHT22;19119;52.474;13.710;2022-10-16T05:44:22;14.30;99.90
32749;DHT22;19119;52.474;13.710;2022-10-16T05:46:48;14.20;99.90
32749;DHT22;19119;52.474;13.710;2022-10-16T05:49:13;14.20;99.90
32749;DHT22;19119;52.474;13.710;2022-10-16T05:51:39;14.20;99.90
32749;DHT22;19119;52.474;13.710;2022-10-16T05:54:04;14.20;99.90
32749;DHT22;19119;52.474;13.710;2022-10-16T05:56:30;14.30;99.90
32749;DHT22;19119;52.474;13.710;2022-10-16T05:58:56;14.30;99.90
32749;DHT22;19119;52.474;13.710;2022-10-16T06:01:21;14.20;99.90
32749;DHT22;19119;52.474;13.710;2022-10-16T06:03:50;14.20;99.90
32749;DHT22;19119;52.474;13.710;2022-10-16T06:06:20;14.30;99.90
32749;DHT22;19119;52.474;13.710;2022-10-16T06:08:47;14.40;99.90
32749;DHT22;19119;52.474;13.710;2022-10-16T06:11:17;14.40;99.90
32749;DHT22;19119;52.474;13.710;2022-10-16T06:13:42;14.50;99.90
32749;DHT22;19119;52.474;13.710;2022-10-16T06:16:09;14.50;99.90
32749;DHT22;19119;52.474;13.710;2022-10-16T06:18:35;14.50;99.90
32749;DHT22;19119;52.474;13.710;2022-10-16T06:21:10;14.50;99.90
32749;DHT22;19119;52.474;13.710;2022-10-16T06:23:36;14.50;99.90
32749;DHT22;19119;52.474;13.710;2022-10-16T06:26:06;14.50;99.90
32749;DHT22;19119;52.474;13.710;2022-10-16T06:28:32;14.50;99.90
32749;DHT22;19119;52.474;13.710;2022-10-16T06:31:03;14.60;99.90
32749;DHT22;19119;52.474;13.710;2022-10-16T06:33:29;14.60;99.90
32749;DHT22;19119;52.474;13.710;2022-10-16T06:36:01;14.60;99.90
32749;DHT22;19119;52.474;13.710;2022-10-16T06:38:27;14.70;99.90
32749;DHT22;19119;52.474;13.710;2022-10-16T06:40:53;14.80;99.90
32749;DHT22;19119;52.474;13.710;2022-10-16T06:43:19;14.90;99.90
32749;DHT22;19119;52.474;13.710;2022-10-16T06:45:56;14.80;99.90
32749;DHT22;19119;52.474;13.710;2022-10-16T06:48:23;14.90;99.90
32749;DHT22;19119;52.474;13.710;2022-10-16T06:51:12;14.90;99.90
32749;DHT22;19119;52.474;13.710;2022-10-16T06:53:42;14.90;99.90
32749;DHT22;19119;52.474;13.710;2022-10-16T06:56:17;14.90;99.90
32749;DHT22;19119;52.474;13.710;2022-10-16T06:58:43;14.80;99.90
32749;DHT22;19119;52.474;13.710;2022-10-16T07:01:10;14.90;99.90
32749;DHT22;19119;52.474;13.710;2022-10-16T07:03:37;15.00;99.90
32749;DHT22;19119;52.474;13.710;2022-10-16T07:06:05;15.10;99.90
32749;DHT22;19119;52.474;13.710;2022-10-16T07:08:38;15.20;99.90
32749;DHT22;19119;52.474;13.710;2022-10-16T07:11:07;15.20;99.90
32749;DHT22;19119;52.474;13.710;2022-10-16T07:13:34;15.30;99.90
32749;DHT22;19119;52.474;13.710;2022-10-16T07:16:11;15.30;99.90
32749;DHT22;19119;52.474;13.710;2022-10-16T07:18:37;15.40;99.90
32749;DHT22;19119;52.474;13.710;2022-10-16T07:21:14;15.40;99.90
32749;DHT22;19119;52.474;13.710;2022-10-16T07:23:40;15.50;99.90
32749;DHT22;19119;52.474;13.710;2022-10-16T07:26:06;15.60;99.90
32749;DHT22;19119;52.474;13.710;2022-10-16T07:28:33;15.60;99.90
32749;DHT22;19119;52.474;13.710;2022-10-16T07:31:07;15.70;99.90
32749;DHT22;19119;52.474;13.710;2022-10-16T07:33:34;15.80;99.90
32749;DHT22;19119;52.474;13.710;2022-10-16T07:36:00;15.90;99.90
32749;DHT22;19119;52.474;13.710;2022-10-16T07:38:26;16.00;99.90
32749;DHT22;19119;52.474;13.710;2022-10-16T07:40:58;16.20;99.90
32749;DHT22;19119;52.474;13.710;2022-10-16T07:43:25;16.40;99.90
32749;DHT22;19119;52.474;13.710;2022-10-16T07:45:51;16.60;99.90
32749;DHT22;19119;52.474;13.710;2022-10-16T07:48:17;16.70;99.90
32749;DHT22;19119;52.474;13.710;2022-10-16T07:50:43;17.20;99.90
32749;DHT22;19119;52.474;13.710;2022-10-16T07:53:09;17.50;99.90
32749;DHT22;19119;52.474;13.710;2022-10-16T07:55:38;17.50;99.90
32749;DHT22;19119;52.474;13.710;2022-10-16T07:58:04;17.70;99.90
32749;DHT22;19119;52.474;13.710;2022-10-16T08:00:30;17.60;99.90
32749;DHT22;19119;52.474;13.710;2022-10-16T08:02:57;17.40;99.90
32749;DHT22;19119;52.474;13.710;2022-10-16T08:05:26;17.30;99.90
32749;DHT22;19119;52.474;13.710;2022-10-16T08:07:52;17.20;99.90
32749;DHT22;19119;52.474;13.710;2022-10-16T08:10:19;17.10;99.90
32749;DHT22;19119;52.474;13.710;2022-10-16T08:12:45;17.00;99.90
32749;DHT22;19119;52.474;13.710;2022-10-16T08:15:11;17.10;99.90
32749;DHT22;19119;52.474;13.710;2022-10-16T08:17:37;17.00;99.90
32749;DHT22;19119;52.474;13.710;2022-10-16T08:20:03;17.00;99.90
32749;DHT22;19119;52.474;13.710;2022-10-16T08:22:28;17.00;99.90
32749;DHT22;19119;52.474;13.710;2022-10-16T08:24:54;17.00;99.90
32749;DHT22;19119;52.474;13.710;2022-10-16T08:27:19;17.00;99.90
32749;DHT22;19119;52.474;13.710;2022-10-16T08:29:45;17.10;99.90
32749;DHT22;19119;52.474;13.710;2022-10-16T08:32:10;17.20;99.90
32749;DHT22;19119;52.474;13.710;2022-10-16T08:34:36;17.30;99.90
32749;DHT22;19119;52.474;13.710;2022-10-16T08:37:01;17.40;99.90
32749;DHT22;19119;52.474;13.710;2022-10-16T08:39:27;17.40;99.90
32749;DHT22;19119;52.474;13.710;2022-10-16T08:42:20;17.40;99.90
32749;DHT22;19119;52.474;13.710;2022-10-16T08:50:13;17.70;99.90
32749;DHT22;19119;52.474;13.710;2022-10-16T08:52:41;17.70;99.90
32749;DHT22;19119;52.474;13.710;2022-10-16T08:55:21;17.80;99.90
32749;DHT22;19119;52.474;13.710;2022-10-16T08:57:50;17.90;99.90
32749;DHT22;19119;52.474;13.710;2022-10-16T09:00:16;17.90;99.90
32749;DHT22;19119;52.474;13.710;2022-10-16T09:14:35;17.60;99.90
32749;DHT22;19119;52.474;13.710;2022-10-16T09:17:36;17.60;99.90
32749;DHT22;19119;52.474;13.710;2022-10-16T09:22:48;18.00;99.90
32749;DHT22;19119;52.474;13.710;2022-10-16T09:25:16;18.50;99.90
32749;DHT22;19119;52.474;13.710;2022-10-16T09:27:44;18.80;99.90
32749;DHT22;19119;52.474;13.710;2022-10-16T09:30:16;18.80;99.90
32749;DHT22;19119;52.474;13.710;2022-10-16T09:32:43;18.80;99.90
32749;DHT22;19119;52.474;13.710;2022-10-16T09:38:04;18.80;99.90
32749;DHT22;19119;52.474;13.710;2022-10-16T09:40:36;18.90;99.90
32749;DHT22;19119;52.474;13.710;2022-10-16T09:43:21;18.90;99.90
32749;DHT22;19119;52.474;13.710;2022-10-16T09:46:05;18.90;99.90
32749;DHT22;19119;52.474;13.710;2022-10-16T09:48:37;18.90;99.90
32749;DHT22;19119;52.474;13.710;2022-10-16T09:51:06;19.20;99.90
32749;DHT22;19119;52.474;13.710;2022-10-16T09:53:42;19.20;99.90
32749;DHT22;19119;52.474;13.710;2022-10-16T09:56:21;19.60;99.90
32749;DHT22;19119;52.474;13.710;2022-10-16T09:58:55;19.90;99.90
32749;DHT22;19119;52.474;13.710;2022-10-16T10:01:26;20.40;99.90
32749;DHT22;19119;52.474;13.710;2022-10-16T10:03:56;20.20;99.90
32749;DHT22;19119;52.474;13.710;2022-10-16T10:09:49;19.70;99.90
32749;DHT22;19119;52.474;13.710;2022-10-16T10:11:57;19.70;99.90
32749;DHT22;19119;52.474;13.710;2022-10-16T10:14:41;19.60;99.90
32749;DHT22;19119;52.474;13.710;2022-10-16T10:17:18;19.90;99.90
32749;DHT22;19119;52.474;13.710;2022-10-16T10:22:32;19.80;99.90
32749;DHT22;19119;52.474;13.710;2022-10-16T10:28:03;19.80;99.90
32749;DHT22;19119;52.474;13.710;2022-10-16T10:33:12;20.60;99.90
32749;DHT22;19119;52.474;13.710;2022-10-16T10:43:43;20.40;99.90
32749;DHT22;19119;52.474;13.710;2022-10-16T10:46:28;20.20;99.90
32749;DHT22;19119;52.474;13.710;2022-10-16T10:52:07;20.50;99.90
32749;DHT22;19119;52.474;13.710;2022-10-16T10:57:32;20.30;99.90
32749;DHT22;19119;52.474;13.710;2022-10-16T11:00:16;20.50;99.90
32749;DHT22;19119;52.474;13.710;2022-10-16T11:05:56;21.00;99.90
32749;DHT22;19119;52.474;13.710;2022-10-16T11:08:30;21.00;99.90
32749;DHT22;19119;52.474;13.710;2022-10-16T11:11:01;21.10;99.90
32749;DHT22;19119;52.474;13.710;2022-10-16T11:13:32;21.20;99.90
32749;DHT22;19119;52.474;13.710;2022-10-16T11:16:03;21.10;99.90
32749;DHT22;19119;52.474;13.710;2022-10-16T11:21:32;21.20;99.90
32749;DHT22;19119;52.474;13.710;2022-10-16T11:26:41;21.20;99.90
32749;DHT22;19119;52.474;13.710;2022-10-16T11:29:16;21.70;99.90
32749;DHT22;19119;52.474;13.710;2022-10-16T11:31:47;22.20;99.90
32749;DHT22;19119;52.474;13.710;2022-10-16T11:34:36;22.00;99.90
32749;DHT22;19119;52.474;13.710;2022-10-16T11:39:45;22.30;99.90
32749;DHT22;19119;52.474;13.710;2022-10-16T11:42:18;22.50;99.90
32749;DHT22;19119;52.474;13.710;2022-10-16T11:45:03;22.30;99.90
32749;DHT22;19119;52.474;13.710;2022-10-16T11:50:43;22.00;99.90
32749;DHT22;19119;52.474;13.710;2022-10-16T11:53:51;21.80;99.90
32749;DHT22;19119;52.474;13.710;2022-10-16T11:56:18;21.50;99.90
32749;DHT22;19119;52.474;13.710;2022-10-16T11:59:04;21.40;99.90
32749;DHT22;19119;52.474;13.710;2022-10-16T12:01:38;21.20;99.90
32749;DHT22;19119;52.474;13.710;2022-10-16T12:11:42;22.80;99.90
32749;DHT22;19119;52.474;13.710;2022-10-16T12:14:20;22.50;99.90
32749;DHT22;19119;52.474;13.710;2022-10-16T12:17:00;21.80;99.90
32749;DHT22;19119;52.474;13.710;2022-10-16T12:19:28;21.80;99.90
32749;DHT22;19119;52.474;13.710;2022-10-16T12:22:01;21.50;99.90
32749;DHT22;19119;52.474;13.710;2022-10-16T12:24:38;21.00;99.90
32749;DHT22;19119;52.474;13.710;2022-10-16T12:27:20;20.80;99.90
32749;DHT22;19119;52.474;13.710;2022-10-16T12:30:01;20.70;99.90
32749;DHT22;19119;52.474;13.710;2022-10-16T12:32:38;20.90;99.90
32749;DHT22;19119;52.474;13.710;2022-10-16T12:35:05;21.40;99.90
32749;DHT22;19119;52.474;13.710;2022-10-16T12:37:41;21.90;99.90
32749;DHT22;19119;52.474;13.710;2022-10-16T12:40:22;22.30;99.90
32749;DHT22;19119;52.474;13.710;2022-10-16T12:42:53;22.70;99.90
32749;DHT22;19119;52.474;13.710;2022-10-16T12:45:31;23.10;99.90
32749;DHT22;19119;52.474;13.710;2022-10-16T12:48:02;23.30;99.90
32749;DHT22;19119;52.474;13.710;2022-10-16T12:50:37;23.30;99.90
32749;DHT22;19119;52.474;13.710;2022-10-16T12:53:16;23.20;99.90
32749;DHT22;19119;52.474;13.710;2022-10-16T13:09:14;23.50;99.90
32749;DHT22;19119;52.474;13.710;2022-10-16T13:12:14;23.60;99.90
32749;DHT22;19119;52.474;13.710;2022-10-16T13:15:02;23.60;99.90
32749;DHT22;19119;52.474;13.710;2022-10-16T13:18:06;23.60;99.90
32749;DHT22;19119;52.474;13.710;2022-10-16T13:23:29;23.60;99.90
32749;DHT22;19119;52.474;13.710;2022-10-16T13:26:21;23.20;99.90
32749;DHT22;19119;52.474;13.710;2022-10-16T13:28:49;22.80;99.90
32749;DHT22;19119;52.474;13.710;2022-10-16T13:31:20;22.70;99.90
32749;DHT22;19119;52.474;13.710;2022-10-16T13:33:47;22.40;99.90
32749;DHT22;19119;52.474;13.710;2022-10-16T13:36:29;22.20;99.90
32749;DHT22;19119;52.474;13.710;2022-10-16T13:39:15;22.30;99.90
32749;DHT22;19119;52.474;13.710;2022-10-16T13:41:43;22.50;99.90
32749;DHT22;19119;52.474;13.710;2022-10-16T13:44:14;22.60;99.90
32749;DHT22;19119;52.474;13.710;2022-10-16T13:46:40;22.60;99.90
32749;DHT22;19119;52.474;13.710;2022-10-16T13:49:14;22.60;99.90
32749;DHT22;19119;52.474;13.710;2022-10-16T13:51:40;22.50;99.90
32749;DHT22;19119;52.474;13.710;2022-10-16T13:54:07;22.50;99.90
32749;DHT22;19119;52.474;13.710;2022-10-16T13:56:34;22.20;99.90
32749;DHT22;19119;52.474;13.710;2022-10-16T13:59:23;22.30;99.90
32749;DHT22;19119;52.474;13.710;2022-10-16T14:01:49;22.20;99.90
32749;DHT22;19119;52.474;13.710;2022-10-16T14:04:16;22.20;99.90
32749;DHT22;19119;52.474;13.710;2022-10-16T14:06:45;22.20;99.90
32749;DHT22;19119;52.474;13.710;2022-10-16T14:09:22;22.20;99.90
32749;DHT22;19119;52.474;13.710;2022-10-16T14:11:53;22.00;99.90
32749;DHT22;19119;52.474;13.710;2022-10-16T14:14:19;21.90;99.90
32749;DHT22;19119;52.474;13.710;2022-10-16T14:16:45;22.00;99.90
32749;DHT22;19119;52.474;13.710;2022-10-16T14:19:30;21.90;99.90
32749;DHT22;19119;52.474;13.710;2022-10-16T14:21:58;21.90;99.90
32749;DHT22;19119;52.474;13.710;2022-10-16T14:24:34;22.00;99.90
32749;DHT22;19119;52.474;13.710;2022-10-16T14:27:00;21.90;99.90
32749;DHT22;19119;52.474;13.710;2022-10-16T14:29:28;21.70;99.90
32749;DHT22;19119;52.474;13.710;2022-10-16T14:32:06;21.60;99.90
32749;DHT22;19119;52.474;13.710;2022-10-16T14:34:53;21.50;99.90
32749;DHT22;19119;52.474;13.710;2022-10-16T14:37:27;21.40;99.90
32749;DHT22;19119;52.474;13.710;2022-10-16T14:39:55;21.40;99.90
32749;DHT22;19119;52.474;13.710;2022-10-16T14:42:23;21.40;99.90
32749;DHT22;19119;52.474;13.710;2022-10-16T14:44:51;21.40;99.90
32749;DHT22;19119;52.474;13.710;2022-10-16T14:47:23;21.30;99.90
32749;DHT22;19119;52.474;13.710;2022-10-16T14:49:52;21.20;99.90
32749;DHT22;19119;52.474;13.710;2022-10-16T14:52:18;21.00;99.90
32749;DHT22;19119;52.474;13.710;2022-10-16T14:54:47;21.10;99.90
32749;DHT22;19119;52.474;13.710;2022-10-16T14:57:17;20.90;99.90
32749;DHT22;19119;52.474;13.710;2022-10-16T14:59:44;20.70;99.90
32749;DHT22;19119;52.474;13.710;2022-10-16T15:02:32;20.60;99.90
32749;DHT22;19119;52.474;13.710;2022-10-16T15:05:15;20.60;99.90
32749;DHT22;19119;52.474;13.710;2022-10-16T15:07:41;20.50;99.90
32749;DHT22;19119;52.474;13.710;2022-10-16T15:10:07;20.50;99.90
32749;DHT22;19119;52.474;13.710;2022-10-16T15:12:32;20.40;99.90
32749;DHT22;19119;52.474;13.710;2022-10-16T15:14:58;20.40;99.90
32749;DHT22;19119;52.474;13.710;2022-10-16T15:17:24;20.30;99.90
32749;DHT22;19119;52.474;13.710;2022-10-16T15:19:49;20.20;99.90
32749;DHT22;19119;52.474;13.710;2022-10-16T15:22:16;20.20;99.90
32749;DHT22;19119;52.474;13.710;2022-10-16T15:24:42;20.10;99.90
32749;DHT22;19119;52.474;13.710;2022-10-16T15:27:08;20.10;99.90
32749;DHT22;19119;52.474;13.710;2022-10-16T15:29:33;19.90;99.90
32749;DHT22;19119;52.474;13.710;2022-10-16T15:31:59;19.80;99.90
32749;DHT22;19119;52.474;13.710;2022-10-16T15:34:24;19.80;99.90
32749;DHT22;19119;52.474;13.710;2022-10-16T15:36:50;19.70;99.90
32749;DHT22;19119;52.474;13.710;2022-10-16T15:39:18;19.60;99.90
32749;DHT22;19119;52.474;13.710;2022-10-16T15:41:45;19.50;99.90
32749;DHT22;19119;52.474;13.710;2022-10-16T15:44:16;19.50;99.90
32749;DHT22;19119;52.474;13.710;2022-10-16T15:46:42;19.30;99.90
32749;DHT22;19119;52.474;13.710;2022-10-16T15:49:08;19.20;99.90
32749;DHT22;19119;52.474;13.710;2022-10-16T15:51:38;19.00;99.90
32749;DHT22;19119;52.474;13.710;2022-10-16T15:54:03;19.00;99.90
32749;DHT22;19119;52.474;13.710;2022-10-16T15:56:29;18.90;99.90
32749;DHT22;19119;52.474;13.710;2022-10-16T15:58:58;18.80;99.90
32749;DHT22;19119;52.474;13.710;2022-10-16T16:01:24;18.60;99.90
32749;DHT22;19119;52.474;13.710;2022-10-16T16:03:53;18.50;99.90
32749;DHT22;19119;52.474;13.710;2022-10-16T16:06:19;18.40;99.90
32749;DHT22;19119;52.474;13.710;2022-10-16T16:08:44;18.30;99.90
32749;DHT22;19119;52.474;13.710;2022-10-16T16:11:12;18.20;99.90
32749;DHT22;19119;52.474;13.710;2022-10-16T16:13:39;18.20;99.90
32749;DHT22;19119;52.474;13.710;2022-10-16T16:16:09;18.10;99.90
32749;DHT22;19119;52.474;13.710;2022-10-16T16:18:35;18.00;99.90
32749;DHT22;19119;52.474;13.710;2022-10-16T16:21:01;17.90;99.90
32749;DHT22;19119;52.474;13.710;2022-10-16T16:23:27;17.90;99.90
32749;DHT22;19119;52.474;13.710;2022-10-16T16:26:12;17.70;99.90
32749;DHT22;19119;52.474;13.710;2022-10-16T16:28:39;17.60;99.90
32749;DHT22;19119;52.474;13.710;2022-10-16T16:31:05;17.50;99.90
32749;DHT22;19119;52.474;13.710;2022-10-16T16:33:30;17.40;99.90
32749;DHT22;19119;52.474;13.710;2022-10-16T16:36:01;17.20;99.90
32749;DHT22;19119;52.474;13.710;2022-10-16T16:38:28;17.10;99.90
32749;DHT22;19119;52.474;13.710;2022-10-16T16:40:53;17.00;99.90
32749;DHT22;19119;52.474;13.710;2022-10-16T16:43:22;16.90;99.90
32749;DHT22;19119;52.474;13.710;2022-10-16T16:45:48;16.70;99.90
32749;DHT22;19119;52.474;13.710;2022-10-16T16:48:14;16.60;99.90
32749;DHT22;19119;52.474;13.710;2022-10-16T16:50:39;16.50;99.90
32749;DHT22;19119;52.474;13.710;2022-10-16T16:53:05;16.30;99.90
32749;DHT22;19119;52.474;13.710;2022-10-16T16:55:30;16.30;99.90
32749;DHT22;19119;52.474;13.710;2022-10-16T16:57:57;16.10;99.90
32749;DHT22;19119;52.474;13.710;2022-10-16T17:00:23;16.00;99.90
32749;DHT22;19119;52.474;13.710;2022-10-16T17:02:50;16.00;99.90
32749;DHT22;19119;52.474;13.710;2022-10-16T17:05:15;15.90;99.90
32749;DHT22;19119;52.474;13.710;2022-10-16T17:07:41;15.80;99.90
32749;DHT22;19119;52.474;13.710;2022-10-16T17:10:08;15.70;99.90
32749;DHT22;19119;52.474;13.710;2022-10-16T17:12:34;15.60;99.90